KMCN/MCN METAR and TAF weather

Enter ICAO airport designator
Station Type Date Time Source
KMCN METAR 2019/06/27 09:53 UTC NOAA

KMCN 270953Z AUTO 00000KT 10SM CLR 21/19 A3014 RMK AO2 SLP202 T02060194


Station Type Date Time Source
KMCN Decoded METAR 2019/06/27 09:53 UTC NOAA

MIDDLE GEORGIA REGIONAL AIRPORT , GA, United States (KMCN) 32-41N 83-39W 109M
Jun 27, 2019 - 05:53 AM EDT / 2019.06.27 0953 UTC
Wind: Calm:0
Visibility: 10 mile(s):0
Sky conditions: clear
Temperature: 69.1 F (20.6 C)
Dew Point: 66.9 F (19.4 C)
Relative Humidity: 92%
Pressure (altimeter): 30.14 in. Hg (1020 hPa)
ob: KMCN 270953Z AUTO 00000KT 10SM CLR 21/19 A3014 RMK AO2 SLP202 T02060194
cycle: 10

Station Type Date Time Source
KMCN TAF 2019/06/27 06:22 UTC NOAA

TAF KMCN 270520Z 2706/2806 31004KT P6SM SCT120 BKN250
FM271400 05005KT P6SM SCT040 SCT120 BKN250
FM271800 08008KT P6SM VCSH SCT050 SCT120 BKN250
FM280100 10004KT P6SM SCT120 BKN250

Example: see airport list